sensor_id;sensor_type;location;lat;lon;timestamp;P1;durP1;ratioP1;P2;durP2;ratioP2
9970;SDS011;5026;51.494;11.974;2023-06-10T00:01:39;7.85;;;3.20;;
9970;SDS011;5026;51.494;11.974;2023-06-10T00:04:08;8.23;;;3.60;;
9970;SDS011;5026;51.494;11.974;2023-06-10T00:06:35;5.20;;;2.83;;
9970;SDS011;5026;51.494;11.974;2023-06-10T00:09:02;6.32;;;3.58;;
9970;SDS011;5026;51.494;11.974;2023-06-10T00:11:31;5.47;;;3.30;;
9970;SDS011;5026;51.494;11.974;2023-06-10T00:13:58;7.00;;;3.50;;
9970;SDS011;5026;51.494;11.974;2023-06-10T00:16:26;5.45;;;3.25;;
9970;SDS011;5026;51.494;11.974;2023-06-10T00:18:53;6.47;;;3.35;;
9970;SDS011;5026;51.494;11.974;2023-06-10T00:21:27;4.68;;;3.40;;
9970;SDS011;5026;51.494;11.974;2023-06-10T00:23:54;6.45;;;4.13;;
9970;SDS011;5026;51.494;11.974;2023-06-10T00:26:21;5.20;;;3.33;;
9970;SDS011;5026;51.494;11.974;2023-06-10T00:28:48;4.03;;;3.20;;
9970;SDS011;5026;51.494;11.974;2023-06-10T00:31:16;8.45;;;3.60;;
9970;SDS011;5026;51.494;11.974;2023-06-10T00:33:43;10.05;;;4.00;;
9970;SDS011;5026;51.494;11.974;2023-06-10T00:36:10;5.57;;;3.10;;
9970;SDS011;5026;51.494;11.974;2023-06-10T00:38:39;6.15;;;3.13;;
9970;SDS011;5026;51.494;11.974;2023-06-10T00:41:06;8.50;;;3.70;;
9970;SDS011;5026;51.494;11.974;2023-06-10T00:43:34;8.23;;;3.50;;
9970;SDS011;5026;51.494;11.974;2023-06-10T00:46:01;7.95;;;3.67;;
9970;SDS011;5026;51.494;11.974;2023-06-10T00:48:28;4.28;;;3.03;;
9970;SDS011;5026;51.494;11.974;2023-06-10T00:50:55;5.30;;;3.60;;
9970;SDS011;5026;51.494;11.974;2023-06-10T00:53:23;4.50;;;3.50;;
9970;SDS011;5026;51.494;11.974;2023-06-10T00:55:51;5.78;;;3.58;;
9970;SDS011;5026;51.494;11.974;2023-06-10T00:58:19;7.95;;;3.80;;
9970;SDS011;5026;51.494;11.974;2023-06-10T01:00:46;5.88;;;3.13;;
9970;SDS011;5026;51.494;11.974;2023-06-10T01:03:13;11.02;;;4.05;;
9970;SDS011;5026;51.494;11.974;2023-06-10T01:05:42;5.20;;;3.38;;
9970;SDS011;5026;51.494;11.974;2023-06-10T01:08:12;5.68;;;3.33;;
9970;SDS011;5026;51.494;11.974;2023-06-10T01:10:57;7.15;;;3.53;;
9970;SDS011;5026;51.494;11.974;2023-06-10T01:13:26;5.10;;;3.72;;
9970;SDS011;5026;51.494;11.974;2023-06-10T01:15:57;8.32;;;4.20;;
9970;SDS011;5026;51.494;11.974;2023-06-10T01:18:29;7.07;;;3.88;;
9970;SDS011;5026;51.494;11.974;2023-06-10T01:20:56;5.45;;;3.42;;
9970;SDS011;5026;51.494;11.974;2023-06-10T01:23:25;8.98;;;4.60;;
9970;SDS011;5026;51.494;11.974;2023-06-10T01:25:53;11.18;;;3.70;;
9970;SDS011;5026;51.494;11.974;2023-06-10T01:28:27;9.38;;;4.07;;
9970;SDS011;5026;51.494;11.974;2023-06-10T01:31:00;6.38;;;3.67;;
9970;SDS011;5026;51.494;11.974;2023-06-10T01:33:37;6.80;;;3.85;;
9970;SDS011;5026;51.494;11.974;2023-06-10T01:36:10;5.65;;;3.80;;
9970;SDS011;5026;51.494;11.974;2023-06-10T01:38:43;8.05;;;4.28;;
9970;SDS011;5026;51.494;11.974;2023-06-10T01:41:12;9.30;;;4.30;;
9970;SDS011;5026;51.494;11.974;2023-06-10T01:43:42;10.57;;;5.10;;
9970;SDS011;5026;51.494;11.974;2023-06-10T01:46:10;8.95;;;3.67;;
9970;SDS011;5026;51.494;11.974;2023-06-10T01:48:37;7.13;;;4.18;;
9970;SDS011;5026;51.494;11.974;2023-06-10T01:51:05;9.57;;;4.68;;
9970;SDS011;5026;51.494;11.974;2023-06-10T01:53:31;5.53;;;3.78;;
9970;SDS011;5026;51.494;11.974;2023-06-10T01:56:00;7.05;;;4.15;;
9970;SDS011;5026;51.494;11.974;2023-06-10T01:58:27;7.85;;;4.60;;
9970;SDS011;5026;51.494;11.974;2023-06-10T02:00:54;8.57;;;4.35;;
9970;SDS011;5026;51.494;11.974;2023-06-10T02:03:21;7.00;;;4.75;;
9970;SDS011;5026;51.494;11.974;2023-06-10T02:05:48;5.53;;;4.55;;
9970;SDS011;5026;51.494;11.974;2023-06-10T02:08:15;9.88;;;4.60;;
9970;SDS011;5026;51.494;11.974;2023-06-10T02:10:42;12.98;;;4.93;;
9970;SDS011;5026;51.494;11.974;2023-06-10T02:13:10;10.60;;;4.35;;
9970;SDS011;5026;51.494;11.974;2023-06-10T02:15:37;9.02;;;4.55;;
9970;SDS011;5026;51.494;11.974;2023-06-10T02:18:05;8.75;;;4.85;;
9970;SDS011;5026;51.494;11.974;2023-06-10T02:20:32;10.20;;;4.97;;
9970;SDS011;5026;51.494;11.974;2023-06-10T02:22:59;9.63;;;4.45;;
9970;SDS011;5026;51.494;11.974;2023-06-10T02:25:26;6.53;;;4.57;;
9970;SDS011;5026;51.494;11.974;2023-06-10T02:27:53;10.45;;;5.20;;
9970;SDS011;5026;51.494;11.974;2023-06-10T02:30:21;10.77;;;5.00;;
9970;SDS011;5026;51.494;11.974;2023-06-10T02:32:48;5.45;;;4.53;;
9970;SDS011;5026;51.494;11.974;2023-06-10T02:35:17;8.73;;;5.03;;
9970;SDS011;5026;51.494;11.974;2023-06-10T02:37:44;12.48;;;5.13;;
9970;SDS011;5026;51.494;11.974;2023-06-10T02:40:11;7.05;;;4.75;;
9970;SDS011;5026;51.494;11.974;2023-06-10T02:42:38;11.05;;;5.38;;
9970;SDS011;5026;51.494;11.974;2023-06-10T02:45:06;9.18;;;5.10;;
9970;SDS011;5026;51.494;11.974;2023-06-10T02:47:37;9.82;;;5.22;;
9970;SDS011;5026;51.494;11.974;2023-06-10T02:50:05;9.23;;;5.25;;
9970;SDS011;5026;51.494;11.974;2023-06-10T02:52:32;8.35;;;5.03;;
9970;SDS011;5026;51.494;11.974;2023-06-10T02:54:59;10.25;;;5.38;;
9970;SDS011;5026;51.494;11.974;2023-06-10T02:57:26;8.02;;;5.22;;
9970;SDS011;5026;51.494;11.974;2023-06-10T02:59:53;9.45;;;5.35;;
9970;SDS011;5026;51.494;11.974;2023-06-10T03:02:20;9.65;;;5.25;;
9970;SDS011;5026;51.494;11.974;2023-06-10T03:04:48;8.98;;;5.55;;
9970;SDS011;5026;51.494;11.974;2023-06-10T03:07:15;9.63;;;5.55;;
9970;SDS011;5026;51.494;11.974;2023-06-10T03:09:43;9.55;;;5.55;;
9970;SDS011;5026;51.494;11.974;2023-06-10T03:12:10;11.52;;;5.75;;
9970;SDS011;5026;51.494;11.974;2023-06-10T03:14:37;11.52;;;5.70;;
9970;SDS011;5026;51.494;11.974;2023-06-10T03:17:04;8.77;;;5.20;;
9970;SDS011;5026;51.494;11.974;2023-06-10T03:19:33;10.55;;;6.25;;
9970;SDS011;5026;51.494;11.974;2023-06-10T03:22:08;10.95;;;5.10;;
9970;SDS011;5026;51.494;11.974;2023-06-10T03:24:36;7.57;;;5.25;;
9970;SDS011;5026;51.494;11.974;2023-06-10T03:27:05;12.52;;;5.80;;
9970;SDS011;5026;51.494;11.974;2023-06-10T03:29:32;12.80;;;5.50;;
9970;SDS011;5026;51.494;11.974;2023-06-10T03:32:00;10.13;;;5.72;;
9970;SDS011;5026;51.494;11.974;2023-06-10T03:34:27;9.38;;;5.45;;
9970;SDS011;5026;51.494;11.974;2023-06-10T03:36:54;8.50;;;5.13;;
9970;SDS011;5026;51.494;11.974;2023-06-10T03:39:23;8.98;;;5.85;;
9970;SDS011;5026;51.494;11.974;2023-06-10T03:41:50;11.90;;;6.32;;
9970;SDS011;5026;51.494;11.974;2023-06-10T03:44:17;11.85;;;5.72;;
9970;SDS011;5026;51.494;11.974;2023-06-10T03:46:44;9.95;;;5.88;;
9970;SDS011;5026;51.494;11.974;2023-06-10T03:49:12;13.00;;;5.63;;
9970;SDS011;5026;51.494;11.974;2023-06-10T03:51:40;9.43;;;6.15;;
9970;SDS011;5026;51.494;11.974;2023-06-10T03:54:07;11.13;;;5.70;;
9970;SDS011;5026;51.494;11.974;2023-06-10T03:56:35;8.65;;;5.43;;
9970;SDS011;5026;51.494;11.974;2023-06-10T03:59:02;10.35;;;5.50;;
9970;SDS011;5026;51.494;11.974;2023-06-10T04:01:30;10.85;;;5.85;;
9970;SDS011;5026;51.494;11.974;2023-06-10T04:03:58;9.85;;;6.20;;
9970;SDS011;5026;51.494;11.974;2023-06-10T04:06:26;12.65;;;5.28;;
9970;SDS011;5026;51.494;11.974;2023-06-10T04:08:54;12.60;;;6.15;;
9970;SDS011;5026;51.494;11.974;2023-06-10T04:11:22;7.80;;;5.32;;
9970;SDS011;5026;51.494;11.974;2023-06-10T04:13:51;10.20;;;5.53;;
9970;SDS011;5026;51.494;11.974;2023-06-10T04:16:17;9.82;;;5.90;;
9970;SDS011;5026;51.494;11.974;2023-06-10T04:18:44;10.48;;;5.97;;
9970;SDS011;5026;51.494;11.974;2023-06-10T04:21:11;10.48;;;6.40;;
9970;SDS011;5026;51.494;11.974;2023-06-10T04:23:38;8.75;;;5.75;;
9970;SDS011;5026;51.494;11.974;2023-06-10T04:26:05;11.63;;;5.63;;
9970;SDS011;5026;51.494;11.974;2023-06-10T04:28:32;10.15;;;5.78;;
9970;SDS011;5026;51.494;11.974;2023-06-10T04:31:00;12.20;;;5.85;;
9970;SDS011;5026;51.494;11.974;2023-06-10T04:33:29;11.55;;;5.90;;
9970;SDS011;5026;51.494;11.974;2023-06-10T04:35:56;10.90;;;6.00;;
9970;SDS011;5026;51.494;11.974;2023-06-10T04:38:23;11.65;;;5.82;;
9970;SDS011;5026;51.494;11.974;2023-06-10T04:40:50;14.25;;;6.22;;
9970;SDS011;5026;51.494;11.974;2023-06-10T04:43:17;9.05;;;5.60;;
9970;SDS011;5026;51.494;11.974;2023-06-10T04:45:44;12.30;;;5.28;;
9970;SDS011;5026;51.494;11.974;2023-06-10T04:48:13;11.90;;;5.63;;
9970;SDS011;5026;51.494;11.974;2023-06-10T04:50:40;11.18;;;6.13;;
9970;SDS011;5026;51.494;11.974;2023-06-10T04:53:07;14.07;;;6.32;;
9970;SDS011;5026;51.494;11.974;2023-06-10T04:55:34;8.20;;;5.10;;
9970;SDS011;5026;51.494;11.974;2023-06-10T04:58:01;10.07;;;5.85;;
9970;SDS011;5026;51.494;11.974;2023-06-10T05:00:28;8.35;;;5.25;;
9970;SDS011;5026;51.494;11.974;2023-06-10T05:02:55;9.82;;;5.72;;
9970;SDS011;5026;51.494;11.974;2023-06-10T05:05:23;11.68;;;6.20;;
9970;SDS011;5026;51.494;11.974;2023-06-10T05:07:50;8.75;;;5.82;;
9970;SDS011;5026;51.494;11.974;2023-06-10T05:10:17;8.85;;;5.95;;
9970;SDS011;5026;51.494;11.974;2023-06-10T05:12:45;12.70;;;5.90;;
9970;SDS011;5026;51.494;11.974;2023-06-10T05:15:12;9.38;;;5.68;;
9970;SDS011;5026;51.494;11.974;2023-06-10T05:17:39;14.82;;;5.93;;
9970;SDS011;5026;51.494;11.974;2023-06-10T05:20:06;9.25;;;5.57;;
9970;SDS011;5026;51.494;11.974;2023-06-10T05:22:35;9.18;;;5.30;;
9970;SDS011;5026;51.494;11.974;2023-06-10T05:25:02;10.02;;;5.53;;
9970;SDS011;5026;51.494;11.974;2023-06-10T05:27:30;8.52;;;5.55;;
9970;SDS011;5026;51.494;11.974;2023-06-10T05:29:57;8.80;;;5.85;;
9970;SDS011;5026;51.494;11.974;2023-06-10T05:32:24;7.68;;;5.57;;
9970;SDS011;5026;51.494;11.974;2023-06-10T05:34:51;8.90;;;5.40;;
9970;SDS011;5026;51.494;11.974;2023-06-10T05:37:18;8.18;;;5.18;;
9970;SDS011;5026;51.494;11.974;2023-06-10T05:39:46;11.07;;;5.13;;
9970;SDS011;5026;51.494;11.974;2023-06-10T05:42:13;8.88;;;4.82;;
9970;SDS011;5026;51.494;11.974;2023-06-10T05:44:41;8.75;;;4.78;;
9970;SDS011;5026;51.494;11.974;2023-06-10T05:47:08;7.50;;;4.28;;
9970;SDS011;5026;51.494;11.974;2023-06-10T05:49:35;9.73;;;5.20;;
9970;SDS011;5026;51.494;11.974;2023-06-10T05:52:02;7.45;;;4.95;;
9970;SDS011;5026;51.494;11.974;2023-06-10T05:54:30;8.85;;;5.00;;
9970;SDS011;5026;51.494;11.974;2023-06-10T05:56:58;8.85;;;4.50;;
9970;SDS011;5026;51.494;11.974;2023-06-10T05:59:25;8.57;;;5.00;;
9970;SDS011;5026;51.494;11.974;2023-06-10T06:01:52;8.10;;;4.90;;
9970;SDS011;5026;51.494;11.974;2023-06-10T06:04:19;5.70;;;4.70;;
9970;SDS011;5026;51.494;11.974;2023-06-10T06:06:46;9.48;;;4.82;;
9970;SDS011;5026;51.494;11.974;2023-06-10T06:09:13;6.85;;;4.85;;
9970;SDS011;5026;51.494;11.974;2023-06-10T06:11:40;8.43;;;4.75;;
9970;SDS011;5026;51.494;11.974;2023-06-10T06:14:09;7.85;;;4.75;;
9970;SDS011;5026;51.494;11.974;2023-06-10T06:16:36;7.22;;;5.00;;
9970;SDS011;5026;51.494;11.974;2023-06-10T06:19:03;9.45;;;5.13;;
9970;SDS011;5026;51.494;11.974;2023-06-10T06:21:30;6.00;;;5.22;;
9970;SDS011;5026;51.494;11.974;2023-06-10T06:23:56;9.85;;;5.30;;
9970;SDS011;5026;51.494;11.974;2023-06-10T06:26:24;6.15;;;4.45;;
9970;SDS011;5026;51.494;11.974;2023-06-10T06:28:51;9.73;;;4.95;;
9970;SDS011;5026;51.494;11.974;2023-06-10T06:31:20;8.77;;;5.18;;
9970;SDS011;5026;51.494;11.974;2023-06-10T06:33:47;8.57;;;4.50;;
9970;SDS011;5026;51.494;11.974;2023-06-10T06:36:14;7.22;;;4.97;;
9970;SDS011;5026;51.494;11.974;2023-06-10T06:38:41;5.40;;;4.60;;
9970;SDS011;5026;51.494;11.974;2023-06-10T06:41:08;7.50;;;4.70;;
9970;SDS011;5026;51.494;11.974;2023-06-10T06:43:34;9.82;;;5.07;;
9970;SDS011;5026;51.494;11.974;2023-06-10T06:46:01;10.23;;;5.22;;
9970;SDS011;5026;51.494;11.974;2023-06-10T06:48:30;13.88;;;5.40;;
9970;SDS011;5026;51.494;11.974;2023-06-10T06:50:57;10.90;;;5.50;;
9970;SDS011;5026;51.494;11.974;2023-06-10T06:53:24;15.73;;;5.50;;
9970;SDS011;5026;51.494;11.974;2023-06-10T06:55:51;21.42;;;5.72;;
9970;SDS011;5026;51.494;11.974;2023-06-10T06:58:18;8.68;;;5.38;;
9970;SDS011;5026;51.494;11.974;2023-06-10T07:00:45;9.40;;;5.25;;
9970;SDS011;5026;51.494;11.974;2023-06-10T07:03:12;8.55;;;5.60;;
9970;SDS011;5026;51.494;11.974;2023-06-10T07:05:41;7.20;;;5.28;;
9970;SDS011;5026;51.494;11.974;2023-06-10T07:08:08;8.02;;;5.18;;
9970;SDS011;5026;51.494;11.974;2023-06-10T07:10:35;7.80;;;5.20;;
9970;SDS011;5026;51.494;11.974;2023-06-10T07:13:02;8.38;;;5.20;;
9970;SDS011;5026;51.494;11.974;2023-06-10T07:15:30;8.55;;;6.00;;
9970;SDS011;5026;51.494;11.974;2023-06-10T07:17:57;10.60;;;6.47;;
9970;SDS011;5026;51.494;11.974;2023-06-10T07:20:24;9.13;;;5.68;;
9970;SDS011;5026;51.494;11.974;2023-06-10T07:22:53;7.60;;;5.53;;
9970;SDS011;5026;51.494;11.974;2023-06-10T07:25:21;6.25;;;5.45;;
9970;SDS011;5026;51.494;11.974;2023-06-10T07:27:48;9.43;;;5.55;;
9970;SDS011;5026;51.494;11.974;2023-06-10T07:30:16;7.38;;;6.55;;
9970;SDS011;5026;51.494;11.974;2023-06-10T07:32:43;7.68;;;5.63;;
9970;SDS011;5026;51.494;11.974;2023-06-10T07:35:10;8.77;;;5.65;;
9970;SDS011;5026;51.494;11.974;2023-06-10T07:37:37;10.32;;;5.82;;
9970;SDS011;5026;51.494;11.974;2023-06-10T07:40:06;6.47;;;5.78;;
9970;SDS011;5026;51.494;11.974;2023-06-10T07:42:34;7.85;;;5.65;;
9970;SDS011;5026;51.494;11.974;2023-06-10T07:45:02;8.75;;;5.57;;
9970;SDS011;5026;51.494;11.974;2023-06-10T07:47:29;7.07;;;5.60;;
9970;SDS011;5026;51.494;11.974;2023-06-10T07:49:56;15.88;;;5.88;;
9970;SDS011;5026;51.494;11.974;2023-06-10T07:52:23;9.90;;;6.38;;
9970;SDS011;5026;51.494;11.974;2023-06-10T07:54:51;11.10;;;6.70;;
9970;SDS011;5026;51.494;11.974;2023-06-10T07:57:19;13.70;;;6.43;;
9970;SDS011;5026;51.494;11.974;2023-06-10T07:59:46;9.57;;;6.05;;
9970;SDS011;5026;51.494;11.974;2023-06-10T08:02:14;9.65;;;6.15;;
9970;SDS011;5026;51.494;11.974;2023-06-10T08:04:41;12.10;;;6.82;;
9970;SDS011;5026;51.494;11.974;2023-06-10T08:07:07;10.63;;;6.68;;
9970;SDS011;5026;51.494;11.974;2023-06-10T08:09:35;11.77;;;7.05;;
9970;SDS011;5026;51.494;11.974;2023-06-10T08:12:03;9.70;;;6.75;;
9970;SDS011;5026;51.494;11.974;2023-06-10T08:14:32;12.90;;;7.10;;
9970;SDS011;5026;51.494;11.974;2023-06-10T08:16:59;13.88;;;7.25;;
9970;SDS011;5026;51.494;11.974;2023-06-10T08:19:26;10.07;;;7.03;;
9970;SDS011;5026;51.494;11.974;2023-06-10T08:21:53;8.40;;;6.90;;
9970;SDS011;5026;51.494;11.974;2023-06-10T08:24:20;13.15;;;8.38;;
9970;SDS011;5026;51.494;11.974;2023-06-10T08:26:47;13.43;;;6.88;;
9970;SDS011;5026;51.494;11.974;2023-06-10T08:29:14;10.65;;;7.68;;
9970;SDS011;5026;51.494;11.974;2023-06-10T08:31:43;11.27;;;7.35;;
9970;SDS011;5026;51.494;11.974;2023-06-10T08:34:10;10.30;;;7.60;;
9970;SDS011;5026;51.494;11.974;2023-06-10T08:36:37;13.93;;;7.35;;
9970;SDS011;5026;51.494;11.974;2023-06-10T08:39:05;10.93;;;6.70;;
9970;SDS011;5026;51.494;11.974;2023-06-10T08:41:33;9.15;;;6.65;;
9970;SDS011;5026;51.494;11.974;2023-06-10T08:44:03;11.23;;;6.90;;
9970;SDS011;5026;51.494;11.974;2023-06-10T08:46:34;9.05;;;7.13;;
9970;SDS011;5026;51.494;11.974;2023-06-10T08:49:05;10.70;;;7.82;;
9970;SDS011;5026;51.494;11.974;2023-06-10T08:51:33;12.15;;;7.20;;
9970;SDS011;5026;51.494;11.974;2023-06-10T08:54:02;11.75;;;7.68;;
9970;SDS011;5026;51.494;11.974;2023-06-10T08:56:36;10.57;;;7.68;;
9970;SDS011;5026;51.494;11.974;2023-06-10T08:59:05;11.13;;;7.28;;
9970;SDS011;5026;51.494;11.974;2023-06-10T09:01:32;9.95;;;7.15;;
9970;SDS011;5026;51.494;11.974;2023-06-10T09:04:00;8.45;;;6.80;;
9970;SDS011;5026;51.494;11.974;2023-06-10T09:06:29;8.13;;;6.55;;
9970;SDS011;5026;51.494;11.974;2023-06-10T09:08:59;7.95;;;6.72;;
9970;SDS011;5026;51.494;11.974;2023-06-10T09:11:26;12.05;;;8.32;;
9970;SDS011;5026;51.494;11.974;2023-06-10T09:13:53;11.05;;;7.82;;
9970;SDS011;5026;51.494;11.974;2023-06-10T09:16:20;9.95;;;8.13;;
9970;SDS011;5026;51.494;11.974;2023-06-10T09:18:48;11.88;;;7.97;;
9970;SDS011;5026;51.494;11.974;2023-06-10T09:21:20;10.25;;;7.78;;
9970;SDS011;5026;51.494;11.974;2023-06-10T09:23:48;11.18;;;7.43;;
9970;SDS011;5026;51.494;11.974;2023-06-10T09:26:15;8.57;;;7.03;;
9970;SDS011;5026;51.494;11.974;2023-06-10T09:28:42;13.15;;;8.07;;
9970;SDS011;5026;51.494;11.974;2023-06-10T09:31:11;11.90;;;7.50;;
9970;SDS011;5026;51.494;11.974;2023-06-10T09:33:39;10.23;;;7.55;;
9970;SDS011;5026;51.494;11.974;2023-06-10T09:36:06;12.25;;;7.07;;
9970;SDS011;5026;51.494;11.974;2023-06-10T09:38:34;10.57;;;7.32;;
9970;SDS011;5026;51.494;11.974;2023-06-10T09:41:03;9.63;;;7.40;;
9970;SDS011;5026;51.494;11.974;2023-06-10T09:43:40;13.02;;;7.20;;
9970;SDS011;5026;51.494;11.974;2023-06-10T09:46:13;7.95;;;7.05;;
9970;SDS011;5026;51.494;11.974;2023-06-10T09:48:44;8.38;;;6.88;;
9970;SDS011;5026;51.494;11.974;2023-06-10T09:51:12;7.93;;;6.80;;
9970;SDS011;5026;51.494;11.974;2023-06-10T09:53:39;12.30;;;7.00;;
9970;SDS011;5026;51.494;11.974;2023-06-10T09:56:08;10.98;;;6.78;;
9970;SDS011;5026;51.494;11.974;2023-06-10T09:58:35;8.65;;;6.93;;
9970;SDS011;5026;51.494;11.974;2023-06-10T10:01:06;10.68;;;7.22;;
9970;SDS011;5026;51.494;11.974;2023-06-10T10:03:42;9.18;;;6.93;;
9970;SDS011;5026;51.494;11.974;2023-06-10T10:06:11;9.25;;;6.55;;
9970;SDS011;5026;51.494;11.974;2023-06-10T10:08:38;12.32;;;7.93;;
9970;SDS011;5026;51.494;11.974;2023-06-10T10:11:07;9.18;;;7.03;;
9970;SDS011;5026;51.494;11.974;2023-06-10T10:13:35;8.55;;;7.18;;
9970;SDS011;5026;51.494;11.974;2023-06-10T10:16:03;10.50;;;7.28;;
9970;SDS011;5026;51.494;11.974;2023-06-10T10:18:36;18.50;;;6.97;;
9970;SDS011;5026;51.494;11.974;2023-06-10T10:21:09;14.43;;;7.32;;
9970;SDS011;5026;51.494;11.974;2023-06-10T10:23:40;12.07;;;6.93;;
9970;SDS011;5026;51.494;11.974;2023-06-10T10:26:21;13.10;;;6.88;;
9970;SDS011;5026;51.494;11.974;2023-06-10T10:28:51;9.18;;;6.78;;
9970;SDS011;5026;51.494;11.974;2023-06-10T10:31:24;8.18;;;6.32;;
9970;SDS011;5026;51.494;11.974;2023-06-10T10:33:58;10.13;;;6.93;;
9970;SDS011;5026;51.494;11.974;2023-06-10T10:36:26;7.68;;;6.60;;
9970;SDS011;5026;51.494;11.974;2023-06-10T10:38:54;7.93;;;6.72;;
9970;SDS011;5026;51.494;11.974;2023-06-10T10:41:23;8.40;;;7.15;;
9970;SDS011;5026;51.494;11.974;2023-06-10T10:43:52;10.52;;;7.63;;
9970;SDS011;5026;51.494;11.974;2023-06-10T10:46:20;12.10;;;7.55;;
9970;SDS011;5026;51.494;11.974;2023-06-10T10:48:50;12.77;;;7.22;;
9970;SDS011;5026;51.494;11.974;2023-06-10T10:51:20;10.82;;;7.68;;
9970;SDS011;5026;51.494;11.974;2023-06-10T10:56:37;9.07;;;6.72;;
9970;SDS011;5026;51.494;11.974;2023-06-10T10:59:04;11.07;;;7.70;;
9970;SDS011;5026;51.494;11.974;2023-06-10T11:01:39;11.10;;;7.05;;
9970;SDS011;5026;51.494;11.974;2023-06-10T11:04:07;11.70;;;6.82;;
9970;SDS011;5026;51.494;11.974;2023-06-10T11:06:35;9.48;;;6.68;;
9970;SDS011;5026;51.494;11.974;2023-06-10T11:09:02;9.63;;;6.72;;
9970;SDS011;5026;51.494;11.974;2023-06-10T11:11:54;7.70;;;6.30;;
9970;SDS011;5026;51.494;11.974;2023-06-10T11:14:26;12.10;;;6.57;;
9970;SDS011;5026;51.494;11.974;2023-06-10T11:16:56;8.93;;;6.93;;
9970;SDS011;5026;51.494;11.974;2023-06-10T11:19:33;10.18;;;7.63;;
9970;SDS011;5026;51.494;11.974;2023-06-10T11:22:01;12.70;;;6.93;;
9970;SDS011;5026;51.494;11.974;2023-06-10T11:24:30;8.90;;;7.05;;
9970;SDS011;5026;51.494;11.974;2023-06-10T11:27:17;8.55;;;6.97;;
9970;SDS011;5026;51.494;11.974;2023-06-10T11:32:31;8.45;;;6.80;;
9970;SDS011;5026;51.494;11.974;2023-06-10T11:34:59;10.48;;;7.18;;
9970;SDS011;5026;51.494;11.974;2023-06-10T11:37:26;10.30;;;7.40;;
9970;SDS011;5026;51.494;11.974;2023-06-10T11:39:54;7.90;;;6.85;;
9970;SDS011;5026;51.494;11.974;2023-06-10T11:42:23;12.73;;;7.30;;
9970;SDS011;5026;51.494;11.974;2023-06-10T11:44:50;8.73;;;6.88;;
9970;SDS011;5026;51.494;11.974;2023-06-10T11:47:18;8.07;;;7.25;;
9970;SDS011;5026;51.494;11.974;2023-06-10T11:49:55;8.90;;;7.13;;
9970;SDS011;5026;51.494;11.974;2023-06-10T11:52:25;8.55;;;6.95;;
9970;SDS011;5026;51.494;11.974;2023-06-10T11:54:53;8.57;;;7.22;;
9970;SDS011;5026;51.494;11.974;2023-06-10T11:57:22;12.70;;;7.28;;
9970;SDS011;5026;51.494;11.974;2023-06-10T11:59:49;13.40;;;7.63;;
9970;SDS011;5026;51.494;11.974;2023-06-10T12:02:16;8.07;;;6.25;;
9970;SDS011;5026;51.494;11.974;2023-06-10T12:04:44;7.82;;;7.03;;
9970;SDS011;5026;51.494;11.974;2023-06-10T12:07:16;9.25;;;7.30;;
9970;SDS011;5026;51.494;11.974;2023-06-10T12:09:44;9.55;;;6.75;;
9970;SDS011;5026;51.494;11.974;2023-06-10T12:12:11;8.98;;;6.95;;
9970;SDS011;5026;51.494;11.974;2023-06-10T12:14:53;9.52;;;7.00;;
9970;SDS011;5026;51.494;11.974;2023-06-10T12:17:21;13.35;;;7.55;;
9970;SDS011;5026;51.494;11.974;2023-06-10T12:19:49;8.82;;;6.85;;
9970;SDS011;5026;51.494;11.974;2023-06-10T12:22:16;14.00;;;7.20;;
9970;SDS011;5026;51.494;11.974;2023-06-10T12:24:44;10.70;;;7.50;;
9970;SDS011;5026;51.494;11.974;2023-06-10T12:27:11;9.25;;;7.32;;
9970;SDS011;5026;51.494;11.974;2023-06-10T12:29:39;9.40;;;7.45;;
9970;SDS011;5026;51.494;11.974;2023-06-10T12:32:08;7.53;;;6.82;;
9970;SDS011;5026;51.494;11.974;2023-06-10T12:34:36;9.15;;;6.57;;
9970;SDS011;5026;51.494;11.974;2023-06-10T12:37:04;10.65;;;7.03;;
9970;SDS011;5026;51.494;11.974;2023-06-10T12:39:32;8.07;;;7.28;;
9970;SDS011;5026;51.494;11.974;2023-06-10T12:42:00;8.20;;;7.30;;
9970;SDS011;5026;51.494;11.974;2023-06-10T12:44:28;9.07;;;6.60;;
9970;SDS011;5026;51.494;11.974;2023-06-10T12:46:56;8.88;;;7.13;;
9970;SDS011;5026;51.494;11.974;2023-06-10T12:49:24;9.63;;;7.28;;
9970;SDS011;5026;51.494;11.974;2023-06-10T12:51:52;10.18;;;7.35;;
9970;SDS011;5026;51.494;11.974;2023-06-10T12:54:20;9.13;;;7.13;;
9970;SDS011;5026;51.494;11.974;2023-06-10T12:56:47;8.52;;;7.63;;
9970;SDS011;5026;51.494;11.974;2023-06-10T12:59:14;9.07;;;7.45;;
9970;SDS011;5026;51.494;11.974;2023-06-10T13:01:41;8.63;;;7.35;;
9970;SDS011;5026;51.494;11.974;2023-06-10T13:04:08;8.02;;;7.22;;
9970;SDS011;5026;51.494;11.974;2023-06-10T13:06:36;8.38;;;7.53;;
9970;SDS011;5026;51.494;11.974;2023-06-10T13:09:04;8.38;;;7.40;;
9970;SDS011;5026;51.494;11.974;2023-06-10T13:11:32;10.25;;;7.00;;
9970;SDS011;5026;51.494;11.974;2023-06-10T13:14:00;7.82;;;7.03;;
9970;SDS011;5026;51.494;11.974;2023-06-10T13:16:30;7.28;;;6.50;;
9970;SDS011;5026;51.494;11.974;2023-06-10T13:18:57;9.77;;;6.85;;
9970;SDS011;5026;51.494;11.974;2023-06-10T13:21:27;8.85;;;7.03;;
9970;SDS011;5026;51.494;11.974;2023-06-10T13:23:55;9.38;;;6.90;;
9970;SDS011;5026;51.494;11.974;2023-06-10T13:26:22;7.47;;;6.68;;
9970;SDS011;5026;51.494;11.974;2023-06-10T13:28:49;6.10;;;5.50;;
9970;SDS011;5026;51.494;11.974;2023-06-10T13:31:16;6.85;;;6.07;;
9970;SDS011;5026;51.494;11.974;2023-06-10T13:33:43;5.22;;;4.80;;
9970;SDS011;5026;51.494;11.974;2023-06-10T13:36:10;7.93;;;5.57;;
9970;SDS011;5026;51.494;11.974;2023-06-10T13:38:37;6.10;;;5.50;;
9970;SDS011;5026;51.494;11.974;2023-06-10T13:41:05;6.50;;;4.95;;
9970;SDS011;5026;51.494;11.974;2023-06-10T13:43:33;5.38;;;4.90;;
9970;SDS011;5026;51.494;11.974;2023-06-10T13:46:00;7.20;;;5.47;;
9970;SDS011;5026;51.494;11.974;2023-06-10T13:48:27;5.22;;;4.75;;
9970;SDS011;5026;51.494;11.974;2023-06-10T13:50:54;6.30;;;5.43;;
9970;SDS011;5026;51.494;11.974;2023-06-10T13:53:21;9.02;;;5.63;;
9970;SDS011;5026;51.494;11.974;2023-06-10T13:55:48;5.78;;;5.18;;
9970;SDS011;5026;51.494;11.974;2023-06-10T13:58:16;6.10;;;5.53;;
9970;SDS011;5026;51.494;11.974;2023-06-10T14:00:43;6.10;;;5.53;;
9970;SDS011;5026;51.494;11.974;2023-06-10T14:03:10;7.82;;;6.05;;
9970;SDS011;5026;51.494;11.974;2023-06-10T14:05:38;7.90;;;7.10;;
9970;SDS011;5026;51.494;11.974;2023-06-10T14:08:05;8.77;;;6.93;;
9970;SDS011;5026;51.494;11.974;2023-06-10T14:10:32;9.90;;;7.25;;
9970;SDS011;5026;51.494;11.974;2023-06-10T14:12:59;10.25;;;6.75;;
9970;SDS011;5026;51.494;11.974;2023-06-10T14:15:28;11.65;;;5.82;;
9970;SDS011;5026;51.494;11.974;2023-06-10T14:17:55;6.15;;;5.38;;
9970;SDS011;5026;51.494;11.974;2023-06-10T14:20:22;9.18;;;6.20;;
9970;SDS011;5026;51.494;11.974;2023-06-10T14:22:51;8.35;;;5.90;;
9970;SDS011;5026;51.494;11.974;2023-06-10T14:25:18;9.07;;;6.50;;
9970;SDS011;5026;51.494;11.974;2023-06-10T14:27:45;7.50;;;6.38;;
9970;SDS011;5026;51.494;11.974;2023-06-10T14:30:13;8.82;;;6.40;;
9970;SDS011;5026;51.494;11.974;2023-06-10T14:32:42;8.70;;;6.68;;
9970;SDS011;5026;51.494;11.974;2023-06-10T14:35:09;7.97;;;5.85;;
9970;SDS011;5026;51.494;11.974;2023-06-10T14:37:36;7.13;;;5.32;;
9970;SDS011;5026;51.494;11.974;2023-06-10T14:40:04;6.13;;;5.53;;
9970;SDS011;5026;51.494;11.974;2023-06-10T14:42:31;6.68;;;5.68;;
9970;SDS011;5026;51.494;11.974;2023-06-10T14:44:58;9.05;;;5.93;;
9970;SDS011;5026;51.494;11.974;2023-06-10T14:47:25;7.03;;;5.60;;
9970;SDS011;5026;51.494;11.974;2023-06-10T14:49:54;6.35;;;5.75;;
9970;SDS011;5026;51.494;11.974;2023-06-10T14:52:21;6.80;;;6.10;;
9970;SDS011;5026;51.494;11.974;2023-06-10T14:54:47;7.03;;;6.32;;
9970;SDS011;5026;51.494;11.974;2023-06-10T14:57:14;6.75;;;5.90;;
9970;SDS011;5026;51.494;11.974;2023-06-10T14:59:42;7.30;;;6.30;;
9970;SDS011;5026;51.494;11.974;2023-06-10T15:02:08;7.22;;;6.53;;
9970;SDS011;5026;51.494;11.974;2023-06-10T15:04:35;6.80;;;6.20;;
9970;SDS011;5026;51.494;11.974;2023-06-10T15:07:04;9.23;;;6.75;;
9970;SDS011;5026;51.494;11.974;2023-06-10T15:09:31;7.60;;;6.85;;